createdAt,value
2018-10-12T00:00:13.325Z,84.70
2018-10-12T00:02:43.035Z,84.20
2018-10-12T00:05:12.436Z,87.50
2018-10-12T00:07:41.848Z,88.40
2018-10-12T00:10:10.938Z,89.90
2018-10-12T00:12:39.717Z,90.30
2018-10-12T00:15:08.319Z,90.20
2018-10-12T00:17:36.813Z,90.30
2018-10-12T00:20:06.430Z,90.60
2018-10-12T00:22:34.964Z,91.00
2018-10-12T00:25:03.488Z,91.70
2018-10-12T00:27:31.968Z,91.90
2018-10-12T00:30:00.479Z,92.40
2018-10-12T00:32:28.953Z,93.60
2018-10-12T00:34:57.554Z,94.30
2018-10-12T00:37:26.070Z,94.60
2018-10-12T00:39:54.544Z,95.20
2018-10-12T00:42:23.051Z,96.40
2018-10-12T00:44:51.758Z,96.80
2018-10-12T00:47:20.263Z,96.80
2018-10-12T00:49:48.804Z,97.50
2018-10-12T00:52:17.283Z,97.40
2018-10-12T00:54:45.783Z,97.60
2018-10-12T00:57:14.296Z,97.30
2018-10-12T00:59:42.785Z,98.40
2018-10-12T01:02:11.511Z,98.80
2018-10-12T01:04:40.051Z,97.80
2018-10-12T01:07:08.577Z,98.10
2018-10-12T01:09:37.106Z,98.50
2018-10-12T01:12:41.557Z,99.30
2018-10-12T01:15:10.132Z,99.80
2018-10-12T01:17:38.807Z,98.90
2018-10-12T01:20:07.776Z,96.30
2018-10-12T01:22:36.501Z,96.30
2018-10-12T01:25:06.016Z,97.10
2018-10-12T01:27:34.571Z,96.80
2018-10-12T01:30:04.093Z,97.70
2018-10-12T01:32:37.947Z,98.10
2018-10-12T01:35:06.461Z,98.50
2018-10-12T01:37:35.047Z,99.20
2018-10-12T01:40:03.621Z,99.80
2018-10-12T01:42:32.109Z,99.60
2018-10-12T01:45:00.697Z,98.80
2018-10-12T01:47:29.192Z,98.60
2018-10-12T01:49:57.665Z,98.50
2018-10-12T01:52:26.201Z,98.00
2018-10-12T01:54:54.704Z,98.60
2018-10-12T01:57:23.197Z,98.30
2018-10-12T01:59:51.704Z,98.70
2018-10-12T02:02:20.217Z,99.50
2018-10-12T02:04:48.716Z,99.80
2018-10-12T02:07:17.220Z,99.90
2018-10-12T02:09:45.721Z,99.90
2018-10-12T02:12:14.214Z,99.90
2018-10-12T02:14:42.708Z,99.90
2018-10-12T02:17:11.204Z,99.90
2018-10-12T02:19:39.724Z,99.90
2018-10-12T02:22:08.226Z,99.90
2018-10-12T02:24:36.712Z,99.90
2018-10-12T02:27:05.231Z,99.90
2018-10-12T02:29:33.713Z,99.90
2018-10-12T02:32:02.274Z,99.90
2018-10-12T02:34:30.783Z,99.90
2018-10-12T02:36:59.581Z,99.90
2018-10-12T02:39:28.073Z,99.90
2018-10-12T02:41:56.591Z,99.90
2018-10-12T02:44:25.073Z,99.90
2018-10-12T02:46:53.581Z,99.90
2018-10-12T02:49:22.064Z,99.90
2018-10-12T02:51:50.581Z,99.90
2018-10-12T02:54:19.092Z,99.90
2018-10-12T02:56:47.578Z,99.90
2018-10-12T02:59:16.115Z,99.90
2018-10-12T03:01:44.608Z,99.90
2018-10-12T03:04:13.117Z,99.90
2018-10-12T03:06:41.628Z,99.90
2018-10-12T03:09:11.311Z,99.90
2018-10-12T03:11:40.044Z,99.90
2018-10-12T03:14:08.588Z,99.90
2018-10-12T03:16:37.138Z,99.90
2018-10-12T03:19:05.703Z,99.90
2018-10-12T03:21:34.189Z,99.90
2018-10-12T03:24:02.768Z,99.90
2018-10-12T03:26:31.252Z,99.90
2018-10-12T03:28:59.776Z,99.90
2018-10-12T03:31:28.350Z,99.90
2018-10-12T03:33:56.898Z,99.90
2018-10-12T03:36:26.542Z,99.90
2018-10-12T03:38:55.042Z,99.90
2018-10-12T03:41:23.590Z,99.90
2018-10-12T03:43:52.129Z,99.90
2018-10-12T03:46:20.648Z,99.90
2018-10-12T03:48:49.173Z,99.90
2018-10-12T03:51:17.726Z,99.90
2018-10-12T03:53:46.346Z,99.90
2018-10-12T03:56:14.831Z,99.90
2018-10-12T03:58:43.308Z,99.90
2018-10-12T04:01:11.823Z,99.90
2018-10-12T04:03:40.370Z,99.90
2018-10-12T04:06:08.908Z,99.90
2018-10-12T04:08:37.468Z,99.90
2018-10-12T04:11:05.981Z,99.90
2018-10-12T04:13:34.481Z,99.90
2018-10-12T04:16:02.962Z,99.90
2018-10-12T04:18:31.470Z,99.90
2018-10-12T04:20:59.977Z,99.90
2018-10-12T04:23:28.792Z,99.90
2018-10-12T04:25:57.277Z,99.90
2018-10-12T04:28:25.768Z,99.90
2018-10-12T04:30:54.260Z,99.90
2018-10-12T04:33:22.763Z,99.90
2018-10-12T04:35:51.260Z,99.90
2018-10-12T04:38:19.795Z,99.90
2018-10-12T04:41:01.262Z,99.90
2018-10-12T04:43:30.270Z,99.90
2018-10-12T04:45:59.056Z,99.90
2018-10-12T04:48:27.905Z,99.90
2018-10-12T04:50:56.890Z,99.90
2018-10-12T04:53:25.519Z,99.90
2018-10-12T04:55:54.325Z,99.90
2018-10-12T04:58:22.870Z,99.90
2018-10-12T05:00:51.475Z,99.90
2018-10-12T05:03:19.987Z,99.90
2018-10-12T05:05:48.587Z,99.90
2018-10-12T05:08:17.171Z,99.90
2018-10-12T05:10:45.717Z,99.90
2018-10-12T05:13:14.235Z,99.90
2018-10-12T05:15:43.214Z,99.90
2018-10-12T05:18:11.751Z,99.90
2018-10-12T05:20:40.247Z,99.90
2018-10-12T05:23:08.737Z,99.90
2018-10-12T05:25:37.245Z,99.90
2018-10-12T05:28:05.787Z,99.90
2018-10-12T05:30:34.275Z,99.90
2018-10-12T05:33:02.807Z,99.90
2018-10-12T05:35:31.297Z,99.90
2018-10-12T05:37:59.851Z,99.90
2018-10-12T05:40:28.349Z,99.90
2018-10-12T05:42:56.868Z,99.90
2018-10-12T05:45:25.325Z,99.90
2018-10-12T05:47:54.014Z,99.90
2018-10-12T05:50:22.514Z,99.90
2018-10-12T05:52:51.077Z,99.90
2018-10-12T05:55:19.587Z,99.90
2018-10-12T05:57:48.177Z,99.90
2018-10-12T06:00:16.735Z,99.90
2018-10-12T06:02:45.236Z,99.90
2018-10-12T06:05:13.802Z,99.90
2018-10-12T06:07:42.316Z,99.90
2018-10-12T06:10:10.933Z,99.90
2018-10-12T06:12:39.409Z,99.90
2018-10-12T06:15:07.939Z,99.90
2018-10-12T06:17:36.429Z,99.90
2018-10-12T06:20:04.986Z,99.90
2018-10-12T06:22:33.556Z,99.90
2018-10-12T06:25:02.056Z,99.90
2018-10-12T06:27:30.541Z,99.90
2018-10-12T06:29:59.034Z,99.90
2018-10-12T06:32:27.515Z,99.90
2018-10-12T06:34:55.999Z,99.90
2018-10-12T06:37:24.531Z,99.90
2018-10-12T06:39:53.019Z,99.90
2018-10-12T06:42:21.517Z,99.90
2018-10-12T06:44:50.033Z,99.90
2018-10-12T06:47:18.497Z,99.90
2018-10-12T06:49:47.001Z,99.90
2018-10-12T06:52:15.578Z,99.90
2018-10-12T06:54:44.115Z,99.90
2018-10-12T06:57:12.633Z,99.90
2018-10-12T06:59:41.157Z,99.90
2018-10-12T07:02:10.245Z,99.90
2018-10-12T07:04:38.751Z,99.90
2018-10-12T07:07:07.325Z,99.90
2018-10-12T07:09:35.899Z,99.90
2018-10-12T07:12:04.417Z,99.90
2018-10-12T07:14:32.914Z,99.90
2018-10-12T07:17:01.429Z,99.90
2018-10-12T07:19:29.921Z,99.90
2018-10-12T07:21:58.419Z,99.90
2018-10-12T07:24:26.947Z,99.90
2018-10-12T07:26:55.423Z,99.90
2018-10-12T07:29:23.929Z,99.90
2018-10-12T07:31:52.640Z,99.90
2018-10-12T07:34:21.376Z,99.90
2018-10-12T07:36:50.088Z,99.90
2018-10-12T07:39:18.674Z,99.90
2018-10-12T07:41:47.131Z,99.90
2018-10-12T07:44:15.640Z,99.90
2018-10-12T07:46:44.128Z,99.90
2018-10-12T07:49:12.625Z,99.90
2018-10-12T07:51:41.140Z,99.90
2018-10-12T07:54:09.672Z,99.90
2018-10-12T07:56:38.260Z,99.90
2018-10-12T07:59:06.800Z,99.90
2018-10-12T08:01:35.286Z,99.90
2018-10-12T08:04:03.816Z,99.90
2018-10-12T08:06:32.336Z,99.90
2018-10-12T08:09:00.828Z,99.90
2018-10-12T08:11:29.332Z,99.90
2018-10-12T08:13:57.874Z,99.90
2018-10-12T08:16:26.354Z,99.90
2018-10-12T08:18:54.982Z,99.90
2018-10-12T08:21:23.576Z,99.90
2018-10-12T08:23:52.118Z,99.90
2018-10-12T08:26:20.633Z,99.90
2018-10-12T08:28:49.133Z,99.90
2018-10-12T08:31:17.625Z,99.90
2018-10-12T08:33:46.177Z,99.90
2018-10-12T08:36:14.678Z,99.90
2018-10-12T08:38:43.190Z,99.90
2018-10-12T08:41:11.717Z,99.90
2018-10-12T08:43:40.281Z,99.90
2018-10-12T08:46:08.789Z,99.90
2018-10-12T08:48:37.306Z,99.30
2018-10-12T08:51:05.829Z,99.20
2018-10-12T08:53:34.533Z,99.90
2018-10-12T08:56:03.193Z,99.40
2018-10-12T08:58:31.799Z,98.00
2018-10-12T09:01:00.316Z,97.90
2018-10-12T09:03:28.956Z,97.10
2018-10-12T09:05:57.448Z,98.00
2018-10-12T09:08:25.950Z,98.90
2018-10-12T09:10:54.464Z,98.20
2018-10-12T09:13:22.972Z,99.10
2018-10-12T09:15:51.591Z,99.90
2018-10-12T09:18:20.087Z,99.60
2018-10-12T09:20:48.657Z,99.60
2018-10-12T09:23:17.168Z,99.70
2018-10-12T09:25:45.756Z,98.30
2018-10-12T09:28:14.344Z,99.10
2018-10-12T09:30:42.938Z,99.30
2018-10-12T09:33:11.476Z,99.10
2018-10-12T09:35:39.989Z,99.60
2018-10-12T09:38:08.506Z,99.90
2018-10-12T09:40:37.220Z,99.90
2018-10-12T09:43:05.943Z,98.30
2018-10-12T09:45:34.375Z,94.70
2018-10-12T09:48:02.870Z,95.20
2018-10-12T09:50:31.447Z,97.70
2018-10-12T09:52:59.864Z,97.90
2018-10-12T09:55:28.370Z,98.60
2018-10-12T09:57:56.848Z,98.00
2018-10-12T10:00:30.656Z,98.10
2018-10-12T10:03:03.374Z,97.70
2018-10-12T10:05:32.145Z,98.60
2018-10-12T10:08:00.725Z,99.90
2018-10-12T10:10:29.187Z,97.60
2018-10-12T10:12:57.710Z,97.60
2018-10-12T10:15:26.244Z,97.80
2018-10-12T10:17:54.775Z,96.80
2018-10-12T10:20:23.288Z,97.40
2018-10-12T10:22:51.791Z,97.70
2018-10-12T10:25:20.380Z,98.40
2018-10-12T10:27:48.917Z,97.80
2018-10-12T10:30:20.433Z,96.90
2018-10-12T10:32:49.172Z,98.20
2018-10-12T10:35:17.427Z,97.00
2018-10-12T10:37:45.924Z,96.20
2018-10-12T10:40:14.441Z,96.70
2018-10-12T10:42:42.932Z,97.50
2018-10-12T10:45:11.442Z,97.20
2018-10-12T10:47:39.952Z,98.00
2018-10-12T10:50:08.477Z,98.10
2018-10-12T10:52:36.984Z,98.80
2018-10-12T10:55:05.576Z,99.10
2018-10-12T10:57:34.086Z,98.80
2018-10-12T11:00:02.612Z,99.10
2018-10-12T11:02:31.130Z,98.50
2018-10-12T11:04:59.628Z,98.40
2018-10-12T11:07:28.108Z,98.90
2018-10-12T11:09:56.596Z,97.60
2018-10-12T11:12:25.121Z,97.30
2018-10-12T11:14:53.598Z,96.90
2018-10-12T11:17:22.106Z,96.50
2018-10-12T11:19:50.908Z,95.80
2018-10-12T11:22:19.432Z,95.80
2018-10-12T11:24:47.951Z,95.80
2018-10-12T11:27:16.454Z,96.50
2018-10-12T11:29:44.974Z,98.30
2018-10-12T11:32:13.489Z,98.00
2018-10-12T11:34:42.001Z,96.10
2018-10-12T11:37:10.471Z,97.80
2018-10-12T11:39:38.979Z,96.40
2018-10-12T11:42:07.523Z,96.00
2018-10-12T11:44:36.013Z,95.50
2018-10-12T11:47:04.530Z,95.50
2018-10-12T11:49:33.009Z,96.70
2018-10-12T11:52:01.532Z,94.80
2018-10-12T11:54:30.047Z,94.10
2018-10-12T11:56:58.515Z,96.10
2018-10-12T11:59:26.995Z,94.10
2018-10-12T12:01:55.487Z,93.90
2018-10-12T12:04:23.993Z,93.70
2018-10-12T12:06:52.485Z,94.30
2018-10-12T12:09:20.992Z,94.20
2018-10-12T12:11:49.525Z,94.10
2018-10-12T12:14:18.036Z,95.40
2018-10-12T12:16:46.560Z,95.10
2018-10-12T12:19:15.132Z,94.60
2018-10-12T12:21:43.592Z,94.70
2018-10-12T12:24:12.104Z,93.00
2018-10-12T12:26:40.633Z,92.80
2018-10-12T12:29:09.119Z,92.80
2018-10-12T12:31:37.621Z,92.80
2018-10-12T12:34:06.108Z,92.80
2018-10-12T12:36:34.602Z,93.80
2018-10-12T12:39:03.274Z,92.60
2018-10-12T12:41:31.786Z,90.10
2018-10-12T12:44:00.266Z,90.20
2018-10-12T12:46:28.784Z,87.90
2018-10-12T12:48:57.669Z,87.90
2018-10-12T12:51:25.771Z,87.00
2018-10-12T12:53:54.272Z,86.20
2018-10-12T12:56:22.761Z,87.00
2018-10-12T12:58:51.244Z,90.40
2018-10-12T13:01:19.773Z,82.70
2018-10-12T13:03:48.271Z,84.00
2018-10-12T13:06:16.772Z,83.90
2018-10-12T13:08:45.252Z,83.10
2018-10-12T13:11:13.783Z,82.20
2018-10-12T13:13:42.367Z,81.70
2018-10-12T13:16:10.781Z,80.80
2018-10-12T13:18:39.274Z,82.80
2018-10-12T13:21:07.855Z,80.00
2018-10-12T13:23:36.352Z,77.70
2018-10-12T13:26:04.890Z,77.60
2018-10-12T13:28:33.366Z,80.90
2018-10-12T13:31:01.863Z,75.20
2018-10-12T13:33:30.400Z,77.90
2018-10-12T13:35:58.890Z,75.40
2018-10-12T13:38:27.369Z,77.60
2018-10-12T13:40:55.874Z,76.40
2018-10-12T13:43:24.365Z,75.70
2018-10-12T13:45:52.874Z,72.60
2018-10-12T13:48:21.360Z,71.90
2018-10-12T13:50:49.860Z,74.10
2018-10-12T13:53:18.352Z,71.70
2018-10-12T13:55:46.858Z,70.80
2018-10-12T13:58:15.344Z,72.50
2018-10-12T14:00:43.857Z,67.90
2018-10-12T14:03:12.336Z,66.90
2018-10-12T14:05:40.831Z,67.10
2018-10-12T14:08:09.432Z,72.10
2018-10-12T14:10:37.900Z,68.30
2018-10-12T14:13:06.508Z,65.00
2018-10-12T14:15:35.004Z,65.80
2018-10-12T14:18:03.573Z,63.10
2018-10-12T14:20:32.071Z,63.40
2018-10-12T14:23:00.605Z,64.60
2018-10-12T14:25:29.086Z,63.60
2018-10-12T14:27:57.609Z,62.70
2018-10-12T14:30:26.115Z,61.40
2018-10-12T14:32:54.615Z,60.70
2018-10-12T14:35:23.113Z,59.70
2018-10-12T14:37:51.658Z,60.00
2018-10-12T14:40:20.143Z,60.00
2018-10-12T14:42:48.614Z,59.50
2018-10-12T14:45:17.109Z,61.10
2018-10-12T14:47:45.623Z,61.20
2018-10-12T14:50:14.137Z,61.60
2018-10-12T14:52:42.645Z,63.00
2018-10-12T14:55:11.119Z,62.60
2018-10-12T14:57:39.633Z,62.30
2018-10-12T15:00:09.253Z,63.80
2018-10-12T15:02:37.758Z,65.70
2018-10-12T15:05:06.668Z,66.80
2018-10-12T15:07:35.146Z,67.90
2018-10-12T15:10:04.153Z,69.00
2018-10-12T15:12:32.737Z,69.90
2018-10-12T15:15:14.722Z,73.40
2018-10-12T15:17:43.225Z,75.50
2018-10-12T15:20:11.891Z,77.00
2018-10-12T15:22:40.686Z,79.30
2018-10-12T15:25:09.068Z,80.70
2018-10-12T15:27:37.758Z,82.40
2018-10-12T15:30:06.302Z,84.70
2018-10-12T15:32:34.776Z,85.00
2018-10-12T15:35:03.621Z,86.30
2018-10-12T15:37:32.147Z,89.20
2018-10-12T15:40:01.105Z,89.10
2018-10-12T15:42:29.724Z,89.50
2018-10-12T15:44:58.236Z,89.50
2018-10-12T15:47:26.748Z,90.90
2018-10-12T15:49:55.262Z,91.30
2018-10-12T15:52:23.856Z,92.30
2018-10-12T15:54:52.386Z,92.30
2018-10-12T15:57:25.184Z,93.20
2018-10-12T15:59:53.875Z,93.90
2018-10-12T16:02:22.551Z,94.30
2018-10-12T16:04:51.157Z,95.20
2018-10-12T16:07:20.056Z,94.90
2018-10-12T16:09:50.928Z,96.20
2018-10-12T16:12:20.325Z,96.60
2018-10-12T16:14:48.840Z,96.50
2018-10-12T16:17:17.708Z,97.00
2018-10-12T16:19:46.311Z,97.40
2018-10-12T16:22:14.854Z,97.80
2018-10-12T16:24:54.658Z,97.70
2018-10-12T16:27:23.160Z,97.50
2018-10-12T16:29:51.690Z,98.10
2018-10-12T16:32:20.196Z,98.30
2018-10-12T16:34:49.099Z,98.10
2018-10-12T16:37:17.681Z,98.20
2018-10-12T16:39:46.175Z,98.90
2018-10-12T16:42:15.128Z,98.40
2018-10-12T16:44:43.683Z,98.40
2018-10-12T16:47:12.224Z,98.70
2018-10-12T16:49:40.790Z,99.80
2018-10-12T16:52:09.336Z,99.60
2018-10-12T16:54:38.753Z,99.90
2018-10-12T16:57:07.362Z,99.90
2018-10-12T16:59:35.845Z,99.90
2018-10-12T17:02:04.470Z,99.90
2018-10-12T17:04:33.063Z,99.90
2018-10-12T17:09:54.700Z,99.90
2018-10-12T17:12:23.304Z,99.90
2018-10-12T17:14:51.762Z,99.90
2018-10-12T17:17:20.289Z,99.90
2018-10-12T17:19:48.950Z,99.90
2018-10-12T17:22:17.546Z,99.90
2018-10-12T17:24:46.122Z,99.90
2018-10-12T17:27:14.733Z,99.90
2018-10-12T17:29:43.315Z,99.90
2018-10-12T17:32:11.833Z,99.90
2018-10-12T17:34:40.388Z,99.90
2018-10-12T17:37:08.889Z,99.90
2018-10-12T17:39:37.436Z,99.90
2018-10-12T17:42:13.330Z,99.90
2018-10-12T17:44:41.913Z,99.90
2018-10-12T17:47:10.435Z,99.90
2018-10-12T17:49:39.116Z,99.90
2018-10-12T17:52:07.702Z,99.90
2018-10-12T17:54:36.210Z,99.90
2018-10-12T17:57:05.529Z,99.90
2018-10-12T17:59:34.345Z,99.90
2018-10-12T18:02:03.375Z,99.90
2018-10-12T18:04:31.963Z,99.90
2018-10-12T18:07:00.504Z,99.90
2018-10-12T18:09:29.001Z,99.90
2018-10-12T18:11:57.484Z,99.90
2018-10-12T18:14:26.171Z,99.90
2018-10-12T18:16:54.570Z,99.90
2018-10-12T18:19:23.091Z,99.90
2018-10-12T18:21:51.615Z,99.90
2018-10-12T18:24:20.135Z,99.90
2018-10-12T18:26:48.637Z,99.90
2018-10-12T18:29:17.123Z,99.90
2018-10-12T18:31:45.629Z,99.90
2018-10-12T18:34:14.144Z,99.90
2018-10-12T18:36:44.373Z,99.90
2018-10-12T18:39:12.954Z,99.90
2018-10-12T18:41:41.563Z,99.90
2018-10-12T18:44:10.084Z,99.90
2018-10-12T18:46:38.595Z,99.90
2018-10-12T18:49:07.164Z,99.90
2018-10-12T18:51:35.654Z,99.90
2018-10-12T18:54:04.192Z,99.90
2018-10-12T18:56:32.697Z,99.90
2018-10-12T18:59:01.192Z,99.90
2018-10-12T19:01:29.689Z,99.90
2018-10-12T19:03:58.208Z,99.90
2018-10-12T19:06:26.742Z,99.90
2018-10-12T19:08:55.236Z,99.90
2018-10-12T19:11:23.741Z,99.90
2018-10-12T19:13:52.289Z,99.90
2018-10-12T19:16:20.770Z,99.90
2018-10-12T19:18:49.270Z,99.90
2018-10-12T19:21:17.776Z,99.90
2018-10-12T19:23:46.389Z,99.90
2018-10-12T19:26:14.794Z,99.90
2018-10-12T19:28:43.303Z,99.90
2018-10-12T19:31:11.920Z,99.90
2018-10-12T19:33:40.416Z,99.90
2018-10-12T19:36:08.882Z,99.90
2018-10-12T19:38:37.383Z,99.90
2018-10-12T19:41:05.980Z,99.90
2018-10-12T19:43:34.505Z,99.90
2018-10-12T19:46:03.098Z,99.90
2018-10-12T19:48:31.594Z,99.90
2018-10-12T19:51:00.097Z,99.90
2018-10-12T19:53:28.653Z,99.90
2018-10-12T19:55:57.139Z,99.90
2018-10-12T19:58:25.623Z,99.90
2018-10-12T20:00:54.143Z,99.90
2018-10-12T20:03:22.647Z,99.90
2018-10-12T20:05:51.167Z,99.90
2018-10-12T20:08:19.692Z,99.90
2018-10-12T20:10:48.202Z,99.90
2018-10-12T20:13:16.686Z,99.90
2018-10-12T20:15:45.156Z,99.90
2018-10-12T20:18:13.628Z,99.90
2018-10-12T20:20:42.162Z,99.90
2018-10-12T20:23:10.628Z,99.90
2018-10-12T20:25:39.126Z,99.90
2018-10-12T20:28:07.802Z,99.90
2018-10-12T20:30:36.296Z,99.90
2018-10-12T20:33:04.787Z,99.90
2018-10-12T20:35:33.305Z,99.90
2018-10-12T20:38:01.833Z,99.90
2018-10-12T20:40:30.340Z,99.90
2018-10-12T20:42:58.832Z,99.90
2018-10-12T20:45:27.347Z,99.90
2018-10-12T20:47:55.843Z,99.90
2018-10-12T20:50:24.336Z,99.90
2018-10-12T20:52:52.855Z,99.90
2018-10-12T20:55:21.320Z,99.90
2018-10-12T20:57:50.431Z,99.90
2018-10-12T21:00:19.860Z,99.90
2018-10-12T21:02:48.340Z,99.90
2018-10-12T21:05:16.883Z,99.90
2018-10-12T21:07:45.664Z,99.90
2018-10-12T21:10:14.227Z,99.90
2018-10-12T21:12:42.767Z,99.90
2018-10-12T21:15:11.263Z,99.90
2018-10-12T21:17:39.774Z,99.90
2018-10-12T21:20:08.301Z,99.90
2018-10-12T21:22:36.889Z,99.90
2018-10-12T21:25:05.386Z,99.90
2018-10-12T21:27:33.875Z,99.90
2018-10-12T21:30:02.453Z,99.90
2018-10-12T21:32:30.935Z,99.90
2018-10-12T21:34:59.432Z,99.90
2018-10-12T21:37:27.937Z,99.90
2018-10-12T21:39:56.438Z,99.90
2018-10-12T21:42:24.957Z,99.90
2018-10-12T21:44:53.454Z,99.90
2018-10-12T21:47:21.960Z,99.90
2018-10-12T21:49:52.082Z,99.90
2018-10-12T21:52:20.580Z,99.90
2018-10-12T21:54:49.079Z,99.90
2018-10-12T21:57:17.569Z,99.90
2018-10-12T21:59:46.111Z,99.90
2018-10-12T22:02:14.560Z,99.90
2018-10-12T22:04:43.061Z,99.90
2018-10-12T22:07:11.595Z,99.90
2018-10-12T22:09:40.072Z,99.90
2018-10-12T22:12:08.589Z,99.90
2018-10-12T22:14:37.080Z,99.90
2018-10-12T22:17:05.622Z,99.90
2018-10-12T22:19:34.169Z,99.90
2018-10-12T22:22:02.647Z,99.90
2018-10-12T22:24:31.145Z,99.90
2018-10-12T22:26:59.659Z,99.90
2018-10-12T22:29:28.143Z,99.90
2018-10-12T22:31:56.632Z,99.90
2018-10-12T22:34:25.125Z,99.90
2018-10-12T22:36:53.603Z,99.90
2018-10-12T22:39:22.104Z,99.90
2018-10-12T22:41:50.579Z,99.90
2018-10-12T22:44:19.166Z,99.90
2018-10-12T22:46:47.712Z,99.90
2018-10-12T22:49:16.200Z,99.90
2018-10-12T22:51:44.711Z,99.90
2018-10-12T22:54:13.217Z,99.90
2018-10-12T22:56:41.695Z,99.90
2018-10-12T22:59:10.187Z,99.90
2018-10-12T23:01:38.693Z,99.90
2018-10-12T23:04:07.311Z,99.90
2018-10-12T23:06:35.867Z,99.90
2018-10-12T23:09:04.885Z,99.90
2018-10-12T23:11:33.351Z,99.90
2018-10-12T23:14:01.869Z,99.90
2018-10-12T23:16:30.368Z,99.90
2018-10-12T23:18:58.855Z,99.90
2018-10-12T23:21:27.347Z,99.90
2018-10-12T23:23:55.876Z,99.90
2018-10-12T23:26:24.355Z,99.90
2018-10-12T23:28:52.836Z,99.90
2018-10-12T23:31:21.319Z,99.90
2018-10-12T23:33:59.877Z,99.90
2018-10-12T23:36:28.492Z,99.90
2018-10-12T23:38:57.070Z,99.90
2018-10-12T23:41:26.086Z,99.90
2018-10-12T23:43:54.634Z,99.90
2018-10-12T23:46:23.145Z,99.90
2018-10-12T23:48:51.638Z,99.90
2018-10-12T23:51:20.198Z,99.90
2018-10-12T23:53:48.945Z,99.90
2018-10-12T23:56:17.432Z,99.90
2018-10-12T23:58:46.366Z,99.90
